Time;durP1;ratioP1;P1;durP2;ratioP2;P2;SDS_P1;SDS_P2;PMS_P1;PMS_P2;Temp;Humidity;BMP_temperature;BMP_pressure;BME280_temperature;BME280_humidity;BME280_pressure;Samples;Min_cycle;Max_cycle;Signal;HPM_P1;HPM_P2
2021/06/03 00:00:24;;;;;;;2.87;2.40;;;27.90;42.60;;;;;;5030159;28;20206;-67
2021/06/03 00:02:52;;;;;;;4.23;2.40;;;27.90;42.60;;;;;;5028755;28;20215;-67
2021/06/03 00:05:25;;;;;;;2.07;1.83;;;27.80;42.60;;;;;;5032262;28;20195;-67
2021/06/03 00:07:54;;;;;;;2.40;2.20;;;27.80;42.60;;;;;;5030090;28;20604;-68
2021/06/03 00:10:27;;;;;;;3.97;2.10;;;27.70;42.50;;;;;;5016861;28;20198;-68
2021/06/03 00:12:56;;;;;;;4.13;2.20;;;27.80;42.60;;;;;;5028008;28;20199;-67
2021/06/03 00:15:23;;;;;;;2.43;2.20;;;27.70;42.60;;;;;;5031582;28;20203;-67
2021/06/03 00:17:50;;;;;;;2.20;2.00;;;27.70;42.80;;;;;;5029057;28;20192;-67
2021/06/03 00:20:21;;;;;;;2.47;2.27;;;27.70;42.80;;;;;;5029055;28;20203;-67
2021/06/03 00:22:48;;;;;;;2.53;2.10;;;27.60;42.80;;;;;;5030144;28;20214;-67
2021/06/03 00:25:15;;;;;;;2.30;2.10;;;27.70;42.90;;;;;;5030825;28;20195;-67
2021/06/03 00:27:42;;;;;;;1.93;1.77;;;27.60;42.90;;;;;;5031761;28;20206;-68
2021/06/03 00:30:10;;;;;;;2.40;2.20;;;27.60;43.00;;;;;;5029665;28;20210;-67
2021/06/03 00:32:37;;;;;;;3.43;2.27;;;27.60;43.10;;;;;;5018218;28;20758;-67
2021/06/03 00:35:06;;;;;;;2.20;2.03;;;27.50;42.90;;;;;;5008390;28;20626;-67
2021/06/03 00:37:33;;;;;;;4.10;2.00;;;27.50;43.00;;;;;;5031579;28;20206;-67
2021/06/03 00:40:00;;;;;;;4.33;2.60;;;27.50;43.10;;;;;;5028153;28;20203;-67
2021/06/03 00:42:28;;;;;;;2.87;2.00;;;27.50;43.30;;;;;;5007583;28;20902;-67
2021/06/03 00:44:55;;;;;;;2.33;2.10;;;27.50;43.30;;;;;;5028025;28;20203;-67
2021/06/03 00:47:23;;;;;;;2.80;2.17;;;27.50;43.40;;;;;;5031271;28;20210;-68
2021/06/03 00:49:50;;;;;;;2.93;2.40;;;27.50;43.50;;;;;;5025622;28;20222;-68
2021/06/03 00:52:17;;;;;;;2.50;2.30;;;27.50;43.50;;;;;;5030097;28;20704;-67
2021/06/03 00:54:44;;;;;;;2.30;2.10;;;27.40;43.50;;;;;;5027684;28;20674;-67
2021/06/03 00:57:11;;;;;;;2.20;2.00;;;27.40;43.60;;;;;;5015655;28;20213;-67
2021/06/03 00:59:38;;;;;;;2.70;2.13;;;27.40;43.70;;;;;;5028702;28;20207;-69
2021/06/03 01:02:05;;;;;;;2.33;2.13;;;27.40;43.90;;;;;;5030087;28;20444;-68
2021/06/03 01:04:33;;;;;;;2.77;2.30;;;27.40;43.90;;;;;;5028908;28;20202;-68
2021/06/03 01:07:00;;;;;;;2.77;2.20;;;27.40;43.80;;;;;;5029798;28;20207;-69
2021/06/03 01:09:30;;;;;;;2.50;2.30;;;27.40;44.00;;;;;;5019392;28;20210;-69
2021/06/03 01:12:13;;;;;;;3.10;1.87;;;27.40;44.10;;;;;;5022053;28;20231;-68
2021/06/03 01:14:45;;;;;;;2.70;2.47;;;27.30;44.10;;;;;;5030254;28;20199;-69
2021/06/03 01:17:12;;;;;;;2.20;1.90;;;27.30;44.00;;;;;;5027960;28;20532;-69
2021/06/03 01:19:41;;;;;;;2.70;2.50;;;27.30;44.10;;;;;;5030884;28;20183;-69
2021/06/03 01:22:18;;;;;;;2.80;2.60;;;27.30;44.20;;;;;;5026323;28;20202;-69
2021/06/03 01:24:53;;;;;;;4.43;2.37;;;27.30;44.30;;;;;;5028079;28;20207;-69
2021/06/03 01:27:30;;;;;;;3.47;2.33;;;27.30;44.30;;;;;;5028134;28;20198;-69
2021/06/03 01:30:08;;;;;;;2.73;2.43;;;27.30;44.40;;;;;;5029761;28;20195;-70
2021/06/03 01:32:39;;;;;;;4.10;2.50;;;27.20;44.40;;;;;;5029309;28;20223;-68
2021/06/03 01:35:16;;;;;;;3.70;2.20;;;27.20;44.40;;;;;;5004066;28;20207;-68
2021/06/03 01:37:43;;;;;;;2.63;2.43;;;27.20;44.40;;;;;;5023068;28;20192;-68
2021/06/03 01:40:12;;;;;;;3.03;2.23;;;27.20;44.50;;;;;;5027207;28;20629;-68
2021/06/03 01:42:39;;;;;;;3.00;2.43;;;27.20;44.70;;;;;;5030568;28;20199;-68
2021/06/03 01:45:07;;;;;;;3.00;2.40;;;27.20;44.80;;;;;;5025150;28;20195;-68
2021/06/03 01:47:35;;;;;;;6.90;2.80;;;27.20;44.90;;;;;;5016682;28;20196;-68
2021/06/03 01:50:04;;;;;;;2.50;2.30;;;27.20;44.90;;;;;;5021422;28;20215;-68
2021/06/03 01:52:31;;;;;;;2.83;2.43;;;27.10;45.00;;;;;;5000322;28;20225;-67
2021/06/03 01:55:00;;;;;;;5.00;2.80;;;27.20;45.20;;;;;;5029262;28;20203;-67
2021/06/03 01:57:27;;;;;;;5.20;2.27;;;27.10;45.20;;;;;;5029097;28;20199;-68
2021/06/03 01:59:54;;;;;;;2.97;2.50;;;27.10;45.20;;;;;;5020236;28;20731;-68
2021/06/03 02:02:21;;;;;;;2.43;2.17;;;27.10;45.20;;;;;;5030153;28;20207;-68
2021/06/03 02:04:48;;;;;;;3.90;2.70;;;27.10;45.40;;;;;;5029661;28;20214;-69
2021/06/03 02:07:14;;;;;;;2.73;2.30;;;27.10;45.40;;;;;;5025354;28;20210;-69
2021/06/03 02:09:41;;;;;;;2.93;2.47;;;27.10;45.40;;;;;;5029959;28;20206;-68
2021/06/03 02:12:11;;;;;;;5.60;2.83;;;27.10;45.50;;;;;;5025546;28;20226;-69
2021/06/03 02:14:40;;;;;;;4.07;2.87;;;27.10;45.70;;;;;;4995330;28;20196;-68
2021/06/03 02:17:18;;;;;;;5.10;2.70;;;27.10;45.70;;;;;;5012227;28;20209;-68
2021/06/03 02:19:56;;;;;;;3.20;2.83;;;27.10;45.60;;;;;;5026218;28;20194;-68
2021/06/03 02:22:24;;;;;;;4.20;2.93;;;27.10;45.60;;;;;;4991888;28;20195;-68
2021/06/03 02:24:51;;;;;;;4.63;2.80;;;27.10;45.50;;;;;;5020466;28;20191;-68
2021/06/03 02:27:20;;;;;;;2.50;2.30;;;27.10;45.60;;;;;;5026985;28;20222;-68
2021/06/03 02:29:49;;;;;;;3.50;2.23;;;27.10;45.80;;;;;;5027351;28;20211;-68
2021/06/03 02:32:19;;;;;;;2.80;2.60;;;27.00;45.80;;;;;;5028726;28;20235;-68
2021/06/03 02:34:49;;;;;;;4.60;3.03;;;27.00;45.80;;;;;;5029969;28;20210;-68
2021/06/03 02:37:16;;;;;;;3.93;2.50;;;27.00;45.90;;;;;;5006667;28;20199;-68
2021/06/03 02:39:48;;;;;;;6.43;2.73;;;27.00;45.90;;;;;;5025805;28;20202;-68
2021/06/03 02:42:16;;;;;;;3.00;2.63;;;27.00;46.00;;;;;;5027445;28;20198;-68
2021/06/03 02:44:43;;;;;;;3.23;2.37;;;27.00;46.00;;;;;;5022022;28;20214;-68
2021/06/03 02:47:10;;;;;;;3.87;2.63;;;27.00;46.00;;;;;;5015821;28;20213;-68
2021/06/03 02:49:37;;;;;;;2.97;2.70;;;27.00;46.70;;;;;;5028069;28;20210;-68
2021/06/03 02:52:07;;;;;;;4.77;2.50;;;27.00;46.20;;;;;;5003782;28;20226;-67
2021/06/03 02:54:34;;;;;;;3.43;2.90;;;27.00;46.30;;;;;;5026050;28;20218;-67
2021/06/03 02:57:01;;;;;;;3.10;2.80;;;27.00;46.40;;;;;;5028328;28;20646;-68
2021/06/03 02:59:28;;;;;;;4.97;2.90;;;26.90;46.40;;;;;;5028025;28;20230;-67
2021/06/03 03:01:55;;;;;;;3.10;2.90;;;26.90;46.40;;;;;;5028468;28;20643;-67
2021/06/03 03:04:21;;;;;;;4.00;3.13;;;26.90;46.60;;;;;;5028535;28;20203;-67
2021/06/03 03:06:48;;;;;;;5.40;2.70;;;26.90;46.60;;;;;;5024464;28;20778;-67
2021/06/03 03:09:15;;;;;;;2.90;2.60;;;26.90;46.60;;;;;;5027093;28;20203;-67
2021/06/03 03:11:42;;;;;;;3.27;2.77;;;26.90;46.60;;;;;;5028405;28;20503;-67
2021/06/03 03:14:09;;;;;;;3.23;2.93;;;26.90;46.70;;;;;;5029342;28;20187;-67
2021/06/03 03:16:36;;;;;;;4.30;2.77;;;26.90;46.70;;;;;;5025957;28;20214;-67
2021/06/03 03:19:04;;;;;;;4.43;2.93;;;26.90;46.80;;;;;;5025068;28;20194;-67
2021/06/03 03:21:31;;;;;;;5.33;2.70;;;26.90;46.80;;;;;;5026201;28;20187;-67
2021/06/03 03:23:58;;;;;;;3.67;2.87;;;26.80;46.70;;;;;;5028015;28;20214;-67
2021/06/03 03:26:24;;;;;;;3.43;2.73;;;26.80;46.70;;;;;;5031565;28;20207;-67
2021/06/03 03:28:51;;;;;;;4.77;2.93;;;26.80;46.90;;;;;;5031198;28;20211;-67
2021/06/03 03:31:18;;;;;;;3.00;2.70;;;26.80;46.90;;;;;;5031233;28;20210;-67
2021/06/03 03:33:45;;;;;;;4.60;2.80;;;26.80;47.00;;;;;;5031735;28;20237;-67
2021/06/03 03:36:12;;;;;;;5.33;3.20;;;26.80;47.00;;;;;;5032291;28;20191;-68
2021/06/03 03:38:39;;;;;;;4.57;3.00;;;26.80;46.90;;;;;;5030044;28;20206;-68
2021/06/03 03:41:06;;;;;;;4.77;2.90;;;26.80;47.00;;;;;;5030907;28;20202;-68
2021/06/03 03:43:32;;;;;;;3.33;3.03;;;26.80;47.10;;;;;;5031284;28;20214;-67
2021/06/03 03:45:59;;;;;;;4.37;3.50;;;26.80;47.10;;;;;;5030335;28;24295;-68
2021/06/03 03:48:26;;;;;;;5.10;3.00;;;26.80;47.00;;;;;;5030093;28;20233;-67
2021/06/03 03:50:53;;;;;;;6.47;3.20;;;26.80;47.00;;;;;;5032367;28;20207;-67
2021/06/03 03:53:21;;;;;;;5.57;3.20;;;26.80;47.10;;;;;;5030997;28;20615;-67
2021/06/03 03:55:48;;;;;;;3.40;3.10;;;26.80;47.10;;;;;;5032321;28;20207;-68
2021/06/03 03:58:15;;;;;;;3.63;3.27;;;26.80;47.10;;;;;;5031981;28;20199;-68
2021/06/03 04:00:42;;;;;;;3.97;3.43;;;26.80;47.20;;;;;;5031794;28;20206;-68
2021/06/03 04:03:09;;;;;;;3.47;3.17;;;26.80;47.30;;;;;;5029729;28;20675;-68
2021/06/03 04:05:36;;;;;;;3.50;3.13;;;26.80;47.20;;;;;;5031740;28;20207;-67
2021/06/03 04:08:03;;;;;;;2.90;2.63;;;26.80;47.10;;;;;;5030408;28;20576;-68
2021/06/03 04:10:30;;;;;;;3.50;3.20;;;26.80;47.10;;;;;;5025903;28;20207;-69
2021/06/03 04:12:57;;;;;;;3.53;3.23;;;26.70;47.10;;;;;;5028404;28;20215;-70
2021/06/03 04:15:24;;;;;;;5.37;3.73;;;26.80;47.10;;;;;;5028849;28;20238;-68
2021/06/03 04:17:51;;;;;;;3.57;3.10;;;26.70;47.10;;;;;;5032690;28;20187;-68
2021/06/03 04:20:21;;;;;;;4.07;2.83;;;26.70;47.20;;;;;;5030399;28;20199;-68
2021/06/03 04:22:49;;;;;;;3.20;2.90;;;26.70;47.30;;;;;;5031232;28;20198;-67
2021/06/03 04:25:15;;;;;;;3.80;3.20;;;26.70;47.20;;;;;;5030737;28;20252;-68
2021/06/03 04:27:42;;;;;;;3.60;3.30;;;26.70;47.20;;;;;;5030400;28;20207;-67
2021/06/03 04:30:13;;;;;;;6.33;3.50;;;26.70;47.20;;;;;;5029198;28;20192;-69
2021/06/03 04:32:40;;;;;;;3.87;3.57;;;26.70;47.20;;;;;;5030675;28;20229;-69
2021/06/03 04:35:07;;;;;;;3.80;3.40;;;26.70;47.50;;;;;;5021247;28;20204;-69
2021/06/03 04:37:35;;;;;;;6.77;3.10;;;26.70;47.40;;;;;;5027863;28;20206;-70
2021/06/03 04:40:03;;;;;;;5.10;3.63;;;26.70;47.60;;;;;;5031020;28;20724;-70
2021/06/03 04:42:31;;;;;;;4.00;3.00;;;26.70;48.90;;;;;;5023176;28;20203;-70
2021/06/03 04:44:57;;;;;;;4.73;3.57;;;26.60;48.10;;;;;;5030500;28;20198;-70
2021/06/03 04:47:24;;;;;;;6.73;2.97;;;26.70;48.00;;;;;;5027427;28;20216;-70
2021/06/03 04:49:51;;;;;;;3.70;2.63;;;26.60;47.60;;;;;;5029578;28;20209;-69
2021/06/03 04:52:30;;;;;;;3.37;2.83;;;26.60;47.70;;;;;;5025370;28;20219;-71
2021/06/03 04:55:01;;;;;;;3.50;2.73;;;26.70;47.50;;;;;;5031154;28;20195;-71
2021/06/03 04:57:36;;;;;;;3.07;2.87;;;26.60;46.90;;;;;;5028845;28;20203;-68
2021/06/03 05:00:09;;;;;;;5.47;3.00;;;26.60;46.90;;;;;;5030606;28;20547;-68
2021/06/03 05:02:36;;;;;;;4.77;2.70;;;26.60;47.10;;;;;;5030586;28;20226;-68
2021/06/03 05:05:05;;;;;;;6.10;3.40;;;26.60;47.20;;;;;;5029524;28;20585;-69
2021/06/03 05:07:32;;;;;;;4.77;3.33;;;26.60;47.30;;;;;;5029297;28;20214;-71
2021/06/03 05:10:03;;;;;;;41.20;13.00;;;26.60;47.40;;;;;;5026887;28;20534;-70
2021/06/03 05:12:33;;;;;;;49.67;16.93;;;26.60;47.50;;;;;;5030600;28;20223;-71
2021/06/03 05:15:01;;;;;;;46.10;15.37;;;26.60;47.70;;;;;;5028629;28;20218;-71
2021/06/03 05:17:28;;;;;;;34.23;11.63;;;26.60;47.80;;;;;;5027416;28;20277;-71
2021/06/03 05:19:55;;;;;;;28.90;10.17;;;26.60;47.90;;;;;;5027403;28;20223;-71
2021/06/03 05:22:22;;;;;;;20.07;8.20;;;26.60;47.80;;;;;;5030020;28;20202;-71
2021/06/03 05:24:49;;;;;;;13.80;7.20;;;26.60;47.80;;;;;;5025014;28;20687;-71
2021/06/03 05:27:15;;;;;;;15.23;6.33;;;26.60;47.80;;;;;;5029760;28;20786;-70
2021/06/03 05:29:42;;;;;;;13.33;5.93;;;26.60;47.80;;;;;;5027206;28;20214;-71
2021/06/03 05:32:09;;;;;;;11.63;5.23;;;26.60;47.80;;;;;;5012392;28;20582;-67
2021/06/03 05:34:36;;;;;;;9.37;5.13;;;26.50;47.80;;;;;;5028629;28;20194;-68
2021/06/03 05:37:08;;;;;;;6.00;4.00;;;26.60;47.90;;;;;;5028627;28;20201;-68
2021/06/03 05:39:34;;;;;;;5.63;3.67;;;26.60;48.00;;;;;;5020147;28;20644;-68
2021/06/03 05:42:01;;;;;;;7.57;4.00;;;26.60;48.10;;;;;;5026873;28;20708;-68
2021/06/03 05:44:28;;;;;;;5.93;3.50;;;26.60;48.30;;;;;;5029269;28;20202;-68
2021/06/03 05:46:55;;;;;;;9.17;3.93;;;26.50;48.30;;;;;;5026136;28;20222;-71
2021/06/03 05:49:22;;;;;;;4.43;3.90;;;26.50;48.30;;;;;;5025264;28;20222;-71
2021/06/03 05:51:50;;;;;;;7.43;3.40;;;26.50;48.30;;;;;;5027672;28;20192;-71
2021/06/03 05:54:16;;;;;;;10.03;3.87;;;26.50;48.20;;;;;;5014156;28;20214;-71
2021/06/03 05:56:43;;;;;;;31.70;9.83;;;26.60;48.60;;;;;;5008807;28;20207;-63
2021/06/03 05:59:10;;;;;;;31.63;9.90;;;26.50;49.00;;;;;;5024526;28;20648;-64
2021/06/03 06:01:37;;;;;;;30.33;9.77;;;26.60;48.80;;;;;;5025619;28;20187;-65
2021/06/03 06:06:34;;;;;;;23.35;8.23;;;26.50;44.90;;;;;;5012305;28;20435;-66
2021/06/03 06:09:06;;;;;;;20.40;7.23;;;26.20;42.70;;;;;;5023686;28;20203;-67
2021/06/03 06:11:34;;;;;;;22.03;6.83;;;25.80;40.90;;;;;;5019002;28;20219;-67
2021/06/03 06:14:03;;;;;;;16.57;6.67;;;25.50;39.80;;;;;;5007837;28;20218;-68
2021/06/03 06:16:30;;;;;;;16.90;6.77;;;25.30;39.20;;;;;;5019986;28;20294;-68
2021/06/03 06:18:57;;;;;;;13.60;5.83;;;25.10;38.80;;;;;;5023859;28;20210;-65
2021/06/03 06:21:25;;;;;;;13.10;5.90;;;24.90;38.60;;;;;;5015712;28;20519;-64
2021/06/03 06:23:52;;;;;;;10.77;5.37;;;24.60;38.40;;;;;;5020230;28;20237;-64
2021/06/03 06:26:19;;;;;;;8.60;4.93;;;24.50;39.00;;;;;;5014602;28;20195;-63
2021/06/03 06:28:47;;;;;;;10.33;4.73;;;24.40;39.40;;;;;;5021449;28;20758;-62
2021/06/03 06:31:14;;;;;;;8.90;4.63;;;24.30;38.40;;;;;;5024992;28;20191;-67
2021/06/03 06:33:42;;;;;;;10.90;5.17;;;24.10;38.20;;;;;;5019888;28;20219;-64
2021/06/03 06:36:10;;;;;;;7.23;4.43;;;23.90;38.10;;;;;;5025622;28;20190;-65
2021/06/03 06:38:37;;;;;;;6.23;3.80;;;23.80;38.10;;;;;;5023742;28;20215;-63
2021/06/03 06:41:06;;;;;;;9.23;4.30;;;23.70;38.10;;;;;;5022819;28;20212;-66
2021/06/03 06:43:34;;;;;;;7.00;4.17;;;23.60;38.40;;;;;;5024790;28;20548;-68
2021/06/03 06:46:05;;;;;;;10.23;4.33;;;23.60;38.50;;;;;;5020182;28;21060;-65
2021/06/03 06:48:33;;;;;;;5.57;3.70;;;23.60;44.40;;;;;;5026268;28;20596;-65
2021/06/03 06:51:01;;;;;;;5.57;3.40;;;23.70;44.60;;;;;;5029650;28;20206;-65
2021/06/03 06:53:28;;;;;;;7.13;4.00;;;23.70;44.30;;;;;;5022475;28;20229;-65
2021/06/03 06:55:55;;;;;;;7.33;3.70;;;23.70;44.00;;;;;;5016323;28;20203;-66
2021/06/03 06:58:27;;;;;;;6.00;3.67;;;23.70;44.40;;;;;;5018307;28;20195;-66
2021/06/03 07:00:55;;;;;;;4.60;3.70;;;23.70;44.90;;;;;;5020570;28;20202;-62
2021/06/03 07:03:23;;;;;;;9.23;3.83;;;23.80;43.80;;;;;;4991349;28;20313;-63
2021/06/03 07:05:50;;;;;;;8.00;3.50;;;23.80;42.60;;;;;;5013436;28;20234;-64
2021/06/03 07:08:17;;;;;;;7.63;3.60;;;23.80;42.10;;;;;;5012311;28;20215;-63
2021/06/03 07:10:44;;;;;;;6.03;3.40;;;23.70;41.70;;;;;;5021719;28;20206;-63
2021/06/03 07:13:10;;;;;;;6.77;3.53;;;23.80;41.50;;;;;;5010878;28;20226;-63
2021/06/03 07:15:38;;;;;;;7.50;3.50;;;23.70;41.40;;;;;;5020486;28;20636;-63
2021/06/03 07:18:05;;;;;;;7.87;2.77;;;23.70;41.30;;;;;;5017742;28;20199;-64
2021/06/03 07:20:34;;;;;;;4.33;2.90;;;23.70;41.20;;;;;;5021317;28;20278;-64
2021/06/03 07:23:04;;;;;;;5.07;2.50;;;23.60;41.20;;;;;;5020318;28;20198;-64
2021/06/03 07:25:34;;;;;;;5.03;3.07;;;23.60;41.10;;;;;;5022056;28;20680;-63
2021/06/03 07:28:02;;;;;;;3.97;2.97;;;23.60;41.30;;;;;;5009089;28;20199;-63
2021/06/03 07:30:30;;;;;;;4.90;3.10;;;23.60;41.10;;;;;;5020240;28;20205;-63
2021/06/03 07:32:57;;;;;;;3.70;2.73;;;23.60;41.00;;;;;;5014140;28;20369;-64
2021/06/03 07:35:26;;;;;;;3.50;2.70;;;23.50;40.90;;;;;;5018680;28;20203;-64
2021/06/03 07:37:53;;;;;;;4.70;2.70;;;23.50;40.90;;;;;;5020856;28;20187;-64
2021/06/03 07:40:24;;;;;;;6.23;2.90;;;23.50;40.80;;;;;;5017130;28;20680;-64
2021/06/03 07:42:52;;;;;;;3.73;2.33;;;23.40;40.60;;;;;;5022060;28;20643;-62
2021/06/03 07:45:22;;;;;;;3.23;2.53;;;23.40;40.60;;;;;;5014169;28;20204;-63
2021/06/03 07:47:51;;;;;;;4.33;2.80;;;23.40;40.60;;;;;;5017915;28;20207;-64
2021/06/03 07:50:20;;;;;;;5.37;2.83;;;23.40;40.60;;;;;;5015776;28;20221;-63
2021/06/03 07:52:47;;;;;;;5.10;2.80;;;23.40;40.60;;;;;;5034975;28;20214;-63
2021/06/03 07:55:16;;;;;;;8.07;2.67;;;23.30;40.60;;;;;;5016608;28;20195;-63
2021/06/03 07:57:45;;;;;;;4.70;2.47;;;23.30;40.60;;;;;;5010679;28;20200;-63
2021/06/03 08:00:15;;;;;;;3.30;2.17;;;23.30;40.70;;;;;;5014699;28;20848;-62
2021/06/03 08:02:43;;;;;;;2.70;2.30;;;23.30;40.60;;;;;;5019301;28;20218;-63
2021/06/03 08:05:12;;;;;;;6.93;2.50;;;23.20;40.60;;;;;;5014630;28;20196;-64
2021/06/03 08:07:39;;;;;;;3.13;2.10;;;23.20;41.10;;;;;;5013928;28;20207;-64
2021/06/03 08:10:10;;;;;;;3.83;2.60;;;23.40;44.10;;;;;;5016147;28;20196;-63
2021/06/03 08:12:36;;;;;;;4.00;2.10;;;23.50;46.60;;;;;;5023887;28;20625;-63
2021/06/03 08:15:05;;;;;;;13.83;2.17;;;23.70;48.60;;;;;;5023498;28;20214;-63
2021/06/03 08:17:32;;;;;;;6.77;2.33;;;23.90;50.10;;;;;;5027568;28;20207;-64
2021/06/03 08:19:59;;;;;;;9.37;2.33;;;24.10;51.10;;;;;;5025428;28;20227;-63
2021/06/03 08:22:26;;;;;;;5.77;2.50;;;24.20;52.20;;;;;;5027595;28;20253;-63
2021/06/03 08:24:53;;;;;;;3.63;2.17;;;24.30;53.00;;;;;;5021531;28;20207;-64
2021/06/03 08:27:19;;;;;;;6.57;2.70;;;24.40;53.80;;;;;;5022473;28;20354;-64
2021/06/03 08:29:46;;;;;;;3.30;2.53;;;24.60;54.30;;;;;;5028046;28;20214;-64
2021/06/03 08:32:13;;;;;;;5.70;2.23;;;24.70;54.80;;;;;;5043286;28;20327;-64
2021/06/03 08:34:40;;;;;;;5.67;2.70;;;24.80;55.30;;;;;;5041772;28;20227;-65
2021/06/03 08:37:07;;;;;;;4.20;2.20;;;24.90;55.50;;;;;;5030198;28;20278;-63
2021/06/03 08:39:34;;;;;;;5.93;2.43;;;25.00;54.30;;;;;;5023785;28;20191;-63
2021/06/03 08:42:02;;;;;;;4.50;2.80;;;25.20;53.20;;;;;;5010183;28;20215;-65
2021/06/03 08:44:29;;;;;;;4.07;2.20;;;25.30;52.40;;;;;;5024747;28;20205;-64
2021/06/03 08:46:56;;;;;;;7.30;2.30;;;25.50;51.90;;;;;;5012146;28;20253;-65
2021/06/03 08:49:24;;;;;;;5.33;2.50;;;25.60;51.40;;;;;;5023123;28;20265;-66
2021/06/03 08:51:53;;;;;;;8.60;2.77;;;25.70;51.10;;;;;;5025552;28;20204;-65
2021/06/03 08:54:20;;;;;;;4.87;2.10;;;25.70;50.70;;;;;;5022527;28;20211;-65
2021/06/03 08:56:47;;;;;;;4.73;2.30;;;25.80;50.00;;;;;;5008466;28;20887;-62
2021/06/03 08:59:14;;;;;;;3.37;2.40;;;25.90;49.40;;;;;;5021731;28;20215;-64
2021/06/03 09:01:41;;;;;;;2.90;2.50;;;26.00;49.80;;;;;;5023152;28;20238;-65
2021/06/03 09:04:09;;;;;;;8.60;2.70;;;26.10;49.90;;;;;;5024066;28;20226;-64
2021/06/03 09:06:36;;;;;;;4.10;2.77;;;26.20;50.00;;;;;;5030163;28;20206;-63
2021/06/03 09:09:06;;;;;;;3.53;2.30;;;26.30;49.90;;;;;;5007303;28;20199;-65
2021/06/03 09:11:33;;;;;;;5.13;2.43;;;26.30;50.00;;;;;;5027377;28;20208;-65
2021/06/03 09:14:04;;;;;;;6.40;2.43;;;26.50;50.10;;;;;;5029798;28;20254;-66
2021/06/03 09:16:34;;;;;;;6.13;2.87;;;26.60;49.90;;;;;;5016158;28;20692;-64
2021/06/03 09:19:09;;;;;;;8.73;2.73;;;26.60;49.80;;;;;;5026398;28;20547;-65
2021/06/03 09:21:43;;;;;;;11.70;2.40;;;26.70;49.70;;;;;;5025216;28;20655;-64
2021/06/03 09:24:13;;;;;;;5.30;2.53;;;26.70;49.30;;;;;;5017514;28;20202;-64
2021/06/03 09:26:46;;;;;;;5.77;2.37;;;26.80;50.50;;;;;;5022102;28;20223;-64
2021/06/03 09:29:24;;;;;;;8.97;2.73;;;26.60;46.00;;;;;;5013766;28;20200;-64
2021/06/03 09:31:53;;;;;;;6.77;2.67;;;26.30;43.30;;;;;;5019735;28;20230;-65
2021/06/03 09:34:22;;;;;;;6.73;2.73;;;26.20;41.80;;;;;;5009779;28;20219;-65
2021/06/03 09:36:52;;;;;;;9.73;3.00;;;25.90;40.90;;;;;;5016127;28;20824;-66
2021/06/03 09:39:33;;;;;;;5.23;2.80;;;25.80;40.50;;;;;;5019866;28;20210;-65
2021/06/03 09:42:16;;;;;;;7.20;3.20;;;25.60;40.30;;;;;;5021678;28;20217;-64
2021/06/03 09:44:48;;;;;;;8.83;3.20;;;25.50;40.20;;;;;;5016296;28;20191;-64
2021/06/03 09:47:36;;;;;;;5.27;2.67;;;25.30;40.50;;;;;;5018913;28;20204;-64
2021/06/03 09:50:09;;;;;;;3.33;2.50;;;25.20;39.90;;;;;;5018335;28;20199;-64
2021/06/03 09:52:38;;;;;;;4.10;2.80;;;25.00;39.80;;;;;;5020371;28;20203;-64
2021/06/03 09:55:11;;;;;;;3.67;3.00;;;24.90;39.70;;;;;;5026224;28;20231;-64
2021/06/03 09:57:41;;;;;;;3.80;2.60;;;24.80;39.70;;;;;;5018341;28;20203;-64
2021/06/03 10:00:21;;;;;;;5.70;2.67;;;24.70;39.70;;;;;;5027785;28;20202;-66
2021/06/03 10:03:00;;;;;;;4.87;2.73;;;24.60;39.60;;;;;;5018049;28;20209;-65
2021/06/03 10:05:27;;;;;;;5.07;2.90;;;24.60;39.60;;;;;;5014669;28;20508;-64
2021/06/03 10:07:57;;;;;;;6.97;2.77;;;24.50;39.60;;;;;;5012606;28;20226;-63
2021/06/03 10:10:30;;;;;;;3.07;2.73;;;24.50;40.50;;;;;;5017359;28;20199;-65
2021/06/03 10:12:57;;;;;;;3.93;2.67;;;24.60;45.30;;;;;;5023420;28;20809;-64
2021/06/03 10:15:25;;;;;;;6.10;2.40;;;24.90;45.70;;;;;;5026037;28;20731;-64
2021/06/03 10:17:54;;;;;;;5.93;2.73;;;25.00;45.70;;;;;;5021357;28;20203;-64
2021/06/03 10:20:34;;;;;;;3.17;2.40;;;25.20;45.70;;;;;;5021437;28;20199;-64
2021/06/03 10:23:01;;;;;;;4.00;2.60;;;25.30;45.80;;;;;;5032585;28;20221;-65
2021/06/03 10:25:30;;;;;;;3.23;2.47;;;25.40;45.80;;;;;;5020910;28;20214;-64
2021/06/03 10:28:03;;;;;;;3.17;2.50;;;25.60;45.80;;;;;;5010814;28;20204;-65
2021/06/03 10:31:05;;;;;;;3.03;2.73;;;25.70;45.90;;;;;;5015496;28;20516;-65
2021/06/03 10:33:33;;;;;;;4.03;2.60;;;25.80;46.00;;;;;;5019916;28;20226;-64
2021/06/03 10:36:04;;;;;;;2.50;2.30;;;25.90;46.10;;;;;;5014253;28;20261;-64
2021/06/03 10:38:32;;;;;;;3.17;2.83;;;25.90;46.10;;;;;;5010816;28;20206;-64
2021/06/03 10:41:03;;;;;;;3.10;2.53;;;26.00;46.10;;;;;;5026856;28;20544;-65
2021/06/03 10:43:35;;;;;;;3.43;2.60;;;26.10;46.10;;;;;;5030111;28;20214;-65
2021/06/03 10:46:03;;;;;;;2.60;2.37;;;26.10;46.20;;;;;;5018943;28;20210;-64
2021/06/03 10:48:31;;;;;;;2.80;2.50;;;26.20;46.00;;;;;;5016648;28;20199;-65
2021/06/03 10:51:03;;;;;;;3.03;2.77;;;26.30;46.00;;;;;;5023477;28;20209;-65
2021/06/03 10:53:33;;;;;;;3.07;2.73;;;26.30;46.00;;;;;;5014284;28;20219;-64
2021/06/03 10:56:12;;;;;;;6.43;2.60;;;26.40;46.60;;;;;;5008908;28;20268;-64
2021/06/03 10:58:41;;;;;;;10.07;3.00;;;26.50;46.80;;;;;;5018129;28;20194;-64
2021/06/03 11:01:10;;;;;;;3.60;2.87;;;26.60;46.70;;;;;;5022406;28;20206;-65
2021/06/03 11:03:46;;;;;;;4.03;2.90;;;26.70;47.00;;;;;;5018739;28;20289;-64
2021/06/03 11:06:15;;;;;;;3.00;2.80;;;26.70;47.30;;;;;;5020691;28;20194;-63
2021/06/03 11:09:08;;;;;;;6.03;2.70;;;26.80;47.50;;;;;;5018699;28;20306;-63
2021/06/03 11:11:43;;;;;;;3.20;2.90;;;26.90;47.80;;;;;;5017725;28;20224;-64
2021/06/03 11:14:15;;;;;;;3.10;2.80;;;27.00;48.20;;;;;;5015902;28;20217;-65
2021/06/03 11:16:51;;;;;;;6.17;3.17;;;27.00;48.00;;;;;;5019986;28;20233;-64
2021/06/03 11:19:20;;;;;;;5.47;2.60;;;27.10;48.30;;;;;;5013022;28;20218;-64
2021/06/03 11:21:49;;;;;;;5.10;2.73;;;27.20;48.50;;;;;;5021821;28;20654;-64
2021/06/03 11:24:16;;;;;;;5.23;3.40;;;27.30;48.70;;;;;;5017828;28;20234;-64
2021/06/03 11:26:50;;;;;;;11.17;3.43;;;27.30;48.90;;;;;;5018769;28;20204;-65
2021/06/03 11:29:22;;;;;;;3.97;3.00;;;27.40;48.70;;;;;;5020878;28;20206;-65
2021/06/03 11:32:05;;;;;;;5.07;3.30;;;27.50;48.60;;;;;;5020284;28;20235;-65
2021/06/03 11:34:38;;;;;;;3.63;3.27;;;27.50;48.70;;;;;;5018051;28;20214;-64
2021/06/03 11:37:10;;;;;;;7.50;3.70;;;27.50;47.00;;;;;;5018384;28;20207;-65
2021/06/03 11:39:46;;;;;;;7.23;3.57;;;27.30;43.50;;;;;;5019822;28;20784;-66
2021/06/03 11:42:30;;;;;;;3.77;3.33;;;27.00;41.60;;;;;;5014724;28;20206;-65
2021/06/03 11:45:20;;;;;;;3.83;3.17;;;26.70;40.40;;;;;;5020065;28;20233;-65
2021/06/03 11:47:47;;;;;;;5.20;3.50;;;26.50;39.80;;;;;;5020575;28;20207;-64
2021/06/03 11:50:20;;;;;;;5.47;4.13;;;26.30;39.70;;;;;;5026054;28;20195;-63
2021/06/03 11:52:53;;;;;;;5.93;3.60;;;26.10;39.80;;;;;;5018425;28;20211;-62
2021/06/03 11:55:44;;;;;;;6.07;3.50;;;26.00;39.30;;;;;;5023044;28;20625;-64
2021/06/03 11:58:19;;;;;;;5.23;4.03;;;25.80;38.90;;;;;;5020072;28;20262;-62
2021/06/03 12:00:52;;;;;;;3.50;3.20;;;25.60;38.50;;;;;;5027250;28;20212;-65
2021/06/03 12:03:31;;;;;;;8.77;3.50;;;25.50;38.20;;;;;;5020281;28;20575;-64
2021/06/03 12:06:02;;;;;;;6.17;3.10;;;25.40;38.30;;;;;;5020119;28;20199;-64
2021/06/03 12:08:42;;;;;;;7.17;3.63;;;25.30;38.20;;;;;;5021298;28;20504;-65
2021/06/03 12:11:14;;;;;;;6.47;3.43;;;25.20;38.10;;;;;;5017789;28;20206;-65
2021/06/03 12:13:42;;;;;;;5.73;3.33;;;25.10;38.10;;;;;;5021175;28;20285;-65
2021/06/03 12:16:10;;;;;;;6.03;3.33;;;25.00;38.00;;;;;;5008032;28;20199;-64
2021/06/03 12:18:40;;;;;;;3.33;3.03;;;24.90;38.10;;;;;;5027175;28;20249;-64
2021/06/03 12:21:10;;;;;;;4.87;3.63;;;24.80;38.00;;;;;;5024036;28;20205;-65
2021/06/03 12:23:49;;;;;;;4.53;2.93;;;24.70;38.10;;;;;;5022668;28;20218;-67
2021/06/03 12:26:18;;;;;;;5.23;3.23;;;24.60;37.90;;;;;;5019922;28;20217;-64
2021/06/03 12:28:45;;;;;;;3.60;3.20;;;24.60;37.80;;;;;;5023707;28;20203;-65
2021/06/03 12:31:28;;;;;;;3.93;3.20;;;24.50;38.00;;;;;;5020324;28;20249;-64
2021/06/03 12:33:56;;;;;;;4.87;3.20;;;24.40;38.90;;;;;;5024675;28;20197;-64
2021/06/03 12:36:26;;;;;;;4.87;3.30;;;24.30;39.70;;;;;;5020031;28;20218;-66
2021/06/03 12:38:56;;;;;;;5.13;2.73;;;24.30;40.50;;;;;;5024713;28;20215;-65
2021/06/03 12:41:24;;;;;;;3.93;2.83;;;24.30;40.90;;;;;;5020648;28;20196;-64
2021/06/03 12:44:05;;;;;;;5.83;2.60;;;24.20;41.10;;;;;;5022685;28;20771;-64
2021/06/03 12:46:39;;;;;;;5.70;2.87;;;24.30;41.70;;;;;;5015284;28;20294;-64
2021/06/03 12:49:14;;;;;;;4.87;2.70;;;24.40;44.50;;;;;;5023506;28;20219;-65
2021/06/03 12:52:01;;;;;;;2.73;2.37;;;24.60;46.70;;;;;;5017801;28;20209;-63
2021/06/03 12:54:44;;;;;;;4.90;3.03;;;24.80;48.60;;;;;;5017840;28;20224;-64
2021/06/03 12:57:16;;;;;;;2.43;2.23;;;25.00;49.70;;;;;;5025077;28;20643;-65
2021/06/03 12:59:46;;;;;;;4.50;2.47;;;25.10;50.80;;;;;;5023223;28;20202;-70